Time;durP1;ratioP1;P1;durP2;ratioP2;P2;SDS_P1;SDS_P2;PMS_P1;PMS_P2;Temp;Humidity;BMP_temperature;BMP_pressure;BME280_temperature;BME280_humidity;BME280_pressure;Samples;Min_cycle;Max_cycle;Signal;HPM_P1;HPM_P2
2021/05/29 00:00:42;;;;;;;9.50;8.60;;;10.50;1.00;;;;;;5011159;28;20414;-79
2021/05/29 00:03:08;;;;;;;9.03;8.23;;;10.50;1.00;;;;;;4991520;28;20463;-79
2021/05/29 00:05:34;;;;;;;9.43;8.47;;;10.50;1.00;;;;;;5010570;28;20460;-80
2021/05/29 00:08:01;;;;;;;7.57;6.88;;;10.60;1.00;;;;;;5011303;28;20494;-79
2021/05/29 00:10:28;;;;;;;10.02;6.05;;;10.60;1.00;;;;;;5008507;28;20233;-78
2021/05/29 00:12:54;;;;;;;7.55;6.70;;;10.60;1.00;;;;;;5012023;28;20225;-78
2021/05/29 00:15:21;;;;;;;6.57;6.07;;;10.60;1.00;;;;;;5010111;28;20781;-80
2021/05/29 00:17:47;;;;;;;7.10;6.40;;;10.60;1.00;;;;;;5003828;28;21181;-80
2021/05/29 00:20:13;;;;;;;6.68;6.07;;;10.70;1.00;;;;;;5011134;28;20483;-79
2021/05/29 00:22:39;;;;;;;6.70;6.00;;;10.70;1.00;;;;;;5013095;28;21353;-78
2021/05/29 00:25:08;;;;;;;6.82;6.22;;;10.60;1.00;;;;;;5007781;28;20450;-78
2021/05/29 00:27:34;;;;;;;6.78;6.18;;;10.60;1.00;;;;;;5008441;28;20243;-77
2021/05/29 00:30:00;;;;;;;5.90;5.30;;;10.60;1.00;;;;;;5003910;28;20222;-78
2021/05/29 00:32:26;;;;;;;9.23;6.70;;;10.60;1.00;;;;;;5015375;28;20684;-78
2021/05/29 00:34:52;;;;;;;6.13;5.63;;;10.60;1.00;;;;;;5024660;28;20444;-79
2021/05/29 00:37:18;;;;;;;6.60;5.95;;;10.60;1.00;;;;;;5009167;28;20227;-79
2021/05/29 00:39:44;;;;;;;6.53;5.90;;;10.50;1.00;;;;;;5012090;28;20255;-79
2021/05/29 00:42:11;;;;;;;7.55;6.47;;;10.50;1.00;;;;;;5010063;28;20689;-79
2021/05/29 00:44:45;;;;;;;10.23;6.38;;;10.50;1.00;;;;;;5020885;28;20730;-80
2021/05/29 00:47:12;;;;;;;8.13;6.40;;;10.40;1.00;;;;;;5016430;28;20218;-79
2021/05/29 00:49:38;;;;;;;7.50;6.43;;;10.40;1.00;;;;;;5010363;28;20235;-79
2021/05/29 00:52:04;;;;;;;10.70;6.70;;;10.40;1.00;;;;;;5009987;28;20440;-79
2021/05/29 00:54:31;;;;;;;7.47;6.78;;;10.40;1.00;;;;;;5016635;28;20449;-79
2021/05/29 00:56:57;;;;;;;6.90;6.30;;;10.30;1.00;;;;;;5018516;28;20222;-78
2021/05/29 00:59:24;;;;;;;18.88;7.90;;;10.30;1.00;;;;;;5009232;28;20277;-78
2021/05/29 01:01:50;;;;;;;7.18;6.35;;;10.20;1.00;;;;;;4998102;28;21476;-79
2021/05/29 01:04:16;;;;;;;8.30;7.22;;;10.20;1.00;;;;;;5012989;28;20218;-79
2021/05/29 01:06:43;;;;;;;7.97;6.78;;;10.20;1.00;;;;;;5012166;28;20278;-78
2021/05/29 01:09:09;;;;;;;9.40;7.32;;;10.20;1.00;;;;;;5003064;28;20366;-78
2021/05/29 01:11:35;;;;;;;8.15;7.38;;;10.10;1.00;;;;;;5006730;28;20258;-78
2021/05/29 01:14:02;;;;;;;8.73;7.00;;;10.10;1.00;;;;;;5010141;28;20711;-79
2021/05/29 01:16:43;;;;;;;10.45;8.35;;;10.10;1.00;;;;;;5011823;28;20495;-78
2021/05/29 01:19:12;;;;;;;7.35;6.47;;;10.10;1.00;;;;;;5005218;28;20306;-78
2021/05/29 01:21:40;;;;;;;8.88;7.47;;;10.00;1.00;;;;;;5005887;28;20231;-79
2021/05/29 01:24:07;;;;;;;7.50;6.40;;;10.00;1.00;;;;;;5011029;28;20261;-79
2021/05/29 01:26:33;;;;;;;9.05;8.23;;;10.00;1.00;;;;;;5012244;28;20230;-80
2021/05/29 01:28:59;;;;;;;9.10;7.50;;;10.00;1.00;;;;;;5007048;28;20245;-79
2021/05/29 01:31:28;;;;;;;8.60;7.80;;;9.90;1.00;;;;;;5009287;28;20235;-79
2021/05/29 01:33:56;;;;;;;8.73;7.50;;;9.90;1.00;;;;;;5009722;28;20445;-79
2021/05/29 01:36:23;;;;;;;9.32;7.68;;;9.90;1.00;;;;;;5009034;28;20709;-79
2021/05/29 01:38:51;;;;;;;10.23;8.82;;;9.90;1.00;;;;;;5008094;28;21484;-80
2021/05/29 01:41:19;;;;;;;8.10;6.90;;;9.90;1.00;;;;;;5004735;28;20242;-79
2021/05/29 01:43:48;;;;;;;8.35;7.55;;;9.80;1.00;;;;;;4990229;28;21185;-80
2021/05/29 01:46:16;;;;;;;9.30;8.15;;;9.80;1.00;;;;;;5007137;28;20710;-79
2021/05/29 01:48:43;;;;;;;10.65;8.48;;;9.80;1.00;;;;;;5011695;28;20242;-79
2021/05/29 01:51:10;;;;;;;10.00;8.98;;;9.80;1.00;;;;;;5006865;28;20236;-80
2021/05/29 01:53:36;;;;;;;14.40;8.80;;;9.70;1.00;;;;;;5010221;28;20229;-78
2021/05/29 01:56:04;;;;;;;27.40;22.65;;;9.70;1.00;;;;;;5003767;28;20282;-79
2021/05/29 01:58:31;;;;;;;10.10;8.90;;;9.60;1.00;;;;;;5011529;28;20281;-80
2021/05/29 02:00:57;;;;;;;10.05;8.60;;;9.60;1.00;;;;;;5009114;28;20258;-79
2021/05/29 02:03:23;;;;;;;9.90;8.80;;;9.60;1.00;;;;;;5010076;28;20977;-79
2021/05/29 02:05:50;;;;;;;10.23;9.07;;;9.60;1.00;;;;;;5006538;28;20231;-79
2021/05/29 02:08:16;;;;;;;9.87;8.93;;;9.60;1.00;;;;;;5011682;28;20447;-77
2021/05/29 02:10:44;;;;;;;12.60;8.68;;;9.60;1.00;;;;;;5016013;28;20425;-80
2021/05/29 02:13:22;;;;;;;9.68;8.55;;;9.50;1.00;;;;;;5017882;28;20224;-79
2021/05/29 02:15:50;;;;;;;10.35;9.25;;;9.50;1.00;;;;;;5020898;28;20282;-79
2021/05/29 02:18:16;;;;;;;11.35;9.30;;;9.50;1.00;;;;;;5009263;28;20788;-79
2021/05/29 02:20:46;;;;;;;10.80;8.80;;;9.50;1.00;;;;;;5008851;28;21024;-79
2021/05/29 02:23:14;;;;;;;12.90;9.97;;;9.40;1.00;;;;;;5010427;28;20227;-80
2021/05/29 02:25:41;;;;;;;10.85;8.80;;;9.40;1.00;;;;;;5009048;28;21010;-80
2021/05/29 02:28:07;;;;;;;10.30;9.03;;;9.40;1.00;;;;;;4992296;28;21378;-80
2021/05/29 02:30:34;;;;;;;12.68;9.70;;;9.40;1.00;;;;;;5006524;28;20507;-80
2021/05/29 02:33:02;;;;;;;12.90;9.75;;;9.40;1.00;;;;;;5006689;28;20223;-79
2021/05/29 02:35:28;;;;;;;10.45;9.13;;;9.40;1.00;;;;;;5013455;28;20242;-80
2021/05/29 02:37:54;;;;;;;10.65;9.57;;;9.40;1.00;;;;;;5011130;28;20227;-80
2021/05/29 02:40:21;;;;;;;10.27;9.10;;;9.40;1.00;;;;;;5010305;28;20231;-79
2021/05/29 02:42:48;;;;;;;9.93;8.90;;;9.40;1.00;;;;;;5005630;28;20223;-78
2021/05/29 02:45:14;;;;;;;10.88;9.18;;;9.50;1.00;;;;;;5013242;28;20231;-79
2021/05/29 02:47:41;;;;;;;11.65;9.10;;;9.50;1.00;;;;;;5012101;28;21089;-80
2021/05/29 02:50:09;;;;;;;10.40;9.30;;;9.50;1.00;;;;;;5006994;28;20234;-79
2021/05/29 02:52:36;;;;;;;10.77;9.68;;;9.60;1.00;;;;;;5013104;28;21190;-79
2021/05/29 02:55:03;;;;;;;11.32;9.43;;;9.60;1.00;;;;;;5008615;28;20277;-79
2021/05/29 02:57:29;;;;;;;11.77;10.68;;;9.60;1.00;;;;;;5017422;28;20228;-79
2021/05/29 02:59:55;;;;;;;11.20;9.45;;;9.60;1.00;;;;;;5012793;28;20251;-80
2021/05/29 03:02:21;;;;;;;12.82;10.40;;;9.70;1.00;;;;;;5013040;28;20224;-79
2021/05/29 03:04:48;;;;;;;10.10;8.63;;;9.60;1.00;;;;;;5009206;28;20278;-79
2021/05/29 03:07:15;;;;;;;15.80;9.80;;;9.70;1.00;;;;;;5011342;28;20216;-79
2021/05/29 03:09:41;;;;;;;10.15;9.20;;;9.70;1.00;;;;;;5010474;28;20246;-79
2021/05/29 03:12:09;;;;;;;12.77;11.02;;;9.70;1.00;;;;;;5017575;28;20986;-79
2021/05/29 03:14:35;;;;;;;11.65;9.50;;;9.70;1.00;;;;;;5016501;28;20286;-79
2021/05/29 03:17:01;;;;;;;12.07;10.05;;;9.70;1.00;;;;;;5018380;28;20224;-79
2021/05/29 03:19:27;;;;;;;13.93;10.02;;;9.70;1.00;;;;;;5013524;28;20228;-79
2021/05/29 03:21:53;;;;;;;12.52;10.25;;;9.70;1.00;;;;;;5012980;28;20224;-79
2021/05/29 03:24:20;;;;;;;15.73;11.93;;;9.70;1.00;;;;;;5012732;28;20229;-79
2021/05/29 03:26:46;;;;;;;13.02;11.75;;;9.70;1.00;;;;;;5018849;28;20470;-79
2021/05/29 03:29:12;;;;;;;13.68;11.32;;;9.60;1.00;;;;;;5021775;28;20253;-80
2021/05/29 03:31:39;;;;;;;13.75;10.75;;;9.60;1.00;;;;;;5007455;28;20232;-80
2021/05/29 03:34:05;;;;;;;14.40;11.25;;;9.60;1.00;;;;;;5008864;28;20228;-80
2021/05/29 03:36:31;;;;;;;13.75;12.35;;;9.50;1.00;;;;;;5012749;28;20228;-79
2021/05/29 03:38:57;;;;;;;14.60;11.55;;;9.50;1.00;;;;;;5011241;28;20218;-80
2021/05/29 03:41:24;;;;;;;14.75;12.73;;;9.50;1.00;;;;;;5009456;28;20770;-77
2021/05/29 03:43:50;;;;;;;12.02;10.10;;;9.40;1.00;;;;;;5009325;28;20234;-79
2021/05/29 03:46:16;;;;;;;13.18;11.70;;;9.40;1.00;;;;;;5009634;28;20222;-79
2021/05/29 03:48:43;;;;;;;15.98;11.02;;;9.40;1.00;;;;;;5012574;28;20235;-79
2021/05/29 03:51:09;;;;;;;12.13;10.88;;;9.30;1.00;;;;;;5014644;28;20234;-78
2021/05/29 03:53:35;;;;;;;13.30;10.75;;;9.30;1.00;;;;;;5013644;28;20227;-79
2021/05/29 03:56:01;;;;;;;14.18;11.52;;;9.30;1.00;;;;;;5007449;28;20222;-80
2021/05/29 03:58:28;;;;;;;14.32;11.98;;;9.40;1.00;;;;;;5011871;28;20226;-79
2021/05/29 04:00:54;;;;;;;19.98;12.55;;;9.40;1.00;;;;;;5011865;28;20224;-78
2021/05/29 04:03:20;;;;;;;16.02;12.48;;;9.50;1.00;;;;;;5007910;28;20230;-80
2021/05/29 04:05:46;;;;;;;18.33;12.85;;;9.60;1.00;;;;;;5008599;28;20254;-79
2021/05/29 04:08:13;;;;;;;16.75;12.43;;;9.70;1.00;;;;;;5011221;28;20241;-79
2021/05/29 04:10:39;;;;;;;17.47;13.33;;;9.80;1.00;;;;;;4999539;28;20269;-79
2021/05/29 04:13:05;;;;;;;17.10;13.70;;;9.90;1.00;;;;;;5012507;28;20470;-79
2021/05/29 04:15:32;;;;;;;19.10;14.15;;;9.90;1.00;;;;;;5013099;28;20223;-79
2021/05/29 04:17:58;;;;;;;20.35;12.88;;;10.00;1.00;;;;;;5011340;28;20233;-80
2021/05/29 04:20:26;;;;;;;15.73;12.57;;;10.10;1.00;;;;;;5010297;28;20234;-79
2021/05/29 04:22:53;;;;;;;16.02;11.70;;;10.10;1.00;;;;;;5007575;28;20991;-79
2021/05/29 04:25:21;;;;;;;14.40;12.38;;;10.10;1.00;;;;;;5004240;28;20260;-79
2021/05/29 04:27:49;;;;;;;16.42;11.65;;;10.20;1.00;;;;;;5007830;28;20235;-78
2021/05/29 04:30:20;;;;;;;18.83;12.60;;;10.10;1.00;;;;;;5009634;28;20227;-79
2021/05/29 04:32:48;;;;;;;15.75;11.85;;;10.10;1.00;;;;;;5007879;28;20293;-79
2021/05/29 04:35:15;;;;;;;14.27;12.77;;;10.20;1.00;;;;;;5010914;28;20235;-79
2021/05/29 04:37:41;;;;;;;16.60;12.80;;;10.20;1.00;;;;;;5004425;28;20243;-79
2021/05/29 04:40:10;;;;;;;16.38;12.27;;;10.20;1.00;;;;;;5015696;28;23282;-79
2021/05/29 04:42:37;;;;;;;15.90;11.73;;;10.10;1.00;;;;;;5012706;28;20225;-78
2021/05/29 04:45:04;;;;;;;13.52;11.73;;;10.10;1.00;;;;;;5013660;28;20217;-80
2021/05/29 04:47:30;;;;;;;13.88;11.20;;;10.10;1.00;;;;;;5022584;28;20282;-78
2021/05/29 04:49:57;;;;;;;13.98;12.48;;;10.20;1.00;;;;;;5009790;28;20756;-79
2021/05/29 04:52:23;;;;;;;18.63;13.25;;;10.10;1.00;;;;;;5006846;28;20224;-78
2021/05/29 04:54:49;;;;;;;12.32;11.10;;;10.20;1.00;;;;;;5014297;28;21821;-79
2021/05/29 04:57:17;;;;;;;14.77;13.02;;;10.20;1.00;;;;;;5005531;28;20229;-79
2021/05/29 04:59:43;;;;;;;17.17;13.07;;;10.20;1.00;;;;;;5004811;28;20234;-78
2021/05/29 05:02:09;;;;;;;14.57;11.75;;;10.30;1.00;;;;;;5007347;28;20217;-78
2021/05/29 05:04:35;;;;;;;15.70;12.82;;;10.30;1.00;;;;;;5017717;28;20229;-78
2021/05/29 05:07:03;;;;;;;17.17;13.38;;;10.40;1.00;;;;;;5012791;28;20225;-78
2021/05/29 05:09:29;;;;;;;14.95;12.98;;;10.50;1.00;;;;;;5004845;28;20246;-78
2021/05/29 05:11:55;;;;;;;15.10;13.40;;;10.50;1.00;;;;;;5010465;28;20280;-78
2021/05/29 05:14:22;;;;;;;15.85;13.90;;;10.50;1.00;;;;;;5006434;28;20240;-79
2021/05/29 05:16:48;;;;;;;16.20;13.03;;;10.60;1.00;;;;;;5011976;28;20232;-78
2021/05/29 05:19:15;;;;;;;16.90;13.63;;;10.50;1.00;;;;;;5006397;28;20539;-78
2021/05/29 05:21:42;;;;;;;16.27;11.70;;;10.60;1.00;;;;;;5008749;28;20452;-78
2021/05/29 05:24:09;;;;;;;16.90;12.80;;;10.60;1.00;;;;;;5006783;28;20225;-78
2021/05/29 05:26:36;;;;;;;12.63;11.33;;;10.60;1.00;;;;;;5014488;28;20249;-78
2021/05/29 05:29:02;;;;;;;13.27;11.90;;;10.60;1.00;;;;;;5013809;28;20459;-78
2021/05/29 05:31:31;;;;;;;12.95;11.73;;;10.60;1.00;;;;;;5010796;28;20708;-78
2021/05/29 05:33:58;;;;;;;13.02;11.73;;;10.60;1.00;;;;;;5017191;28;20245;-77
2021/05/29 05:36:24;;;;;;;15.07;13.47;;;10.50;1.00;;;;;;5012708;28;20249;-79
2021/05/29 05:38:51;;;;;;;13.10;11.70;;;10.50;1.00;;;;;;5011931;28;21362;-79
2021/05/29 05:41:18;;;;;;;12.97;11.67;;;10.50;1.00;;;;;;5012905;28;20465;-79
2021/05/29 05:43:46;;;;;;;13.77;12.23;;;10.60;1.00;;;;;;5008738;28;20502;-80
2021/05/29 05:46:13;;;;;;;13.75;11.73;;;10.60;1.00;;;;;;5017965;28;21164;-78
2021/05/29 05:48:39;;;;;;;13.77;11.30;;;10.60;1.00;;;;;;5009410;28;20256;-78
2021/05/29 05:51:06;;;;;;;13.13;11.40;;;10.60;1.00;;;;;;5007629;28;20537;-79
2021/05/29 05:53:32;;;;;;;11.50;10.30;;;10.70;1.00;;;;;;5009459;28;20775;-78
2021/05/29 05:56:02;;;;;;;13.65;11.88;;;10.80;1.00;;;;;;5011720;28;20233;-79
2021/05/29 05:58:33;;;;;;;12.23;11.02;;;10.90;1.00;;;;;;5010772;28;20222;-78
2021/05/29 06:01:00;;;;;;;12.40;11.10;;;10.90;1.00;;;;;;5032301;28;20286;-79
2021/05/29 06:03:27;;;;;;;15.17;11.80;;;10.90;1.00;;;;;;5018753;28;20492;-78
2021/05/29 06:05:53;;;;;;;13.07;11.73;;;10.90;1.00;;;;;;5030725;28;20654;-78
2021/05/29 06:08:20;;;;;;;12.80;11.57;;;10.90;1.00;;;;;;5016581;28;20455;-78
2021/05/29 06:10:46;;;;;;;13.00;11.30;;;11.00;1.00;;;;;;5014097;28;23583;-77
2021/05/29 06:13:15;;;;;;;12.80;11.18;;;11.10;1.00;;;;;;5022921;28;20532;-75
2021/05/29 06:18:59;;;;;;;12.38;10.98;;;11.20;1.00;;;;;;5017833;28;20477;-78
2021/05/29 06:21:25;;;;;;;15.40;12.30;;;11.30;1.00;;;;;;5021593;28;20214;-78
2021/05/29 06:23:51;;;;;;;12.70;10.82;;;11.50;1.00;;;;;;5015975;28;20516;-79
2021/05/29 06:26:17;;;;;;;13.90;12.50;;;11.60;1.00;;;;;;5018525;28;20230;-78
2021/05/29 06:28:44;;;;;;;15.03;12.33;;;11.70;1.00;;;;;;5018633;28;20518;-79
2021/05/29 06:31:11;;;;;;;13.13;11.40;;;11.80;1.00;;;;;;5021323;28;20447;-79
2021/05/29 06:33:37;;;;;;;13.30;11.53;;;11.90;1.00;;;;;;5019458;28;20453;-79
2021/05/29 06:36:04;;;;;;;14.07;11.57;;;12.00;1.00;;;;;;5021036;28;20441;-79
2021/05/29 06:38:31;;;;;;;15.33;12.00;;;12.00;1.00;;;;;;5014877;28;20941;-78
2021/05/29 06:40:57;;;;;;;15.93;12.60;;;12.10;1.00;;;;;;5009463;28;20454;-76
2021/05/29 06:43:24;;;;;;;14.67;12.90;;;12.30;1.00;;;;;;5016279;28;20448;-77
2021/05/29 06:45:51;;;;;;;14.93;11.90;;;12.50;1.00;;;;;;5014881;28;20513;-79
2021/05/29 06:48:19;;;;;;;13.23;11.90;;;12.60;1.00;;;;;;5017523;28;20477;-79
2021/05/29 06:50:50;;;;;;;12.67;11.23;;;12.70;1.00;;;;;;5019033;28;20456;-80
2021/05/29 06:53:20;;;;;;;12.87;11.23;;;12.80;1.00;;;;;;5019124;28;20422;-78
2021/05/29 06:58:43;;;;;;;16.50;12.00;;;13.00;1.00;;;;;;5014169;28;20484;-77
2021/05/29 07:01:09;;;;;;;17.43;15.17;;;13.00;1.00;;;;;;5020168;28;20457;-78
2021/05/29 07:03:36;;;;;;;19.10;13.33;;;13.00;1.00;;;;;;5012967;28;20451;-77
2021/05/29 07:06:02;;;;;;;15.93;12.83;;;13.10;1.00;;;;;;5020781;28;20469;-77
2021/05/29 07:08:28;;;;;;;17.57;12.60;;;13.10;1.00;;;;;;5020687;28;20472;-78
2021/05/29 07:10:55;;;;;;;13.90;12.50;;;13.10;1.00;;;;;;5018372;28;20475;-78
2021/05/29 07:13:21;;;;;;;15.97;13.30;;;13.00;1.00;;;;;;5020013;28;20450;-76
2021/05/29 07:15:47;;;;;;;15.13;13.53;;;12.80;1.00;;;;;;5019228;28;20445;-78
2021/05/29 07:18:15;;;;;;;14.20;12.80;;;12.70;1.00;;;;;;5024339;28;20424;-79
2021/05/29 07:20:43;;;;;;;15.10;13.47;;;12.90;1.00;;;;;;5024562;28;20531;-78
2021/05/29 07:23:09;;;;;;;16.40;14.03;;;13.10;1.00;;;;;;5033510;28;20413;-77
2021/05/29 07:25:36;;;;;;;17.60;13.40;;;13.20;1.00;;;;;;5035679;28;21151;-77
2021/05/29 07:28:03;;;;;;;15.90;13.07;;;13.30;1.00;;;;;;5028803;28;20399;-78
2021/05/29 07:30:29;;;;;;;14.93;12.40;;;13.50;1.00;;;;;;5023302;28;20474;-77
2021/05/29 07:32:55;;;;;;;15.50;12.67;;;13.70;1.00;;;;;;5026743;28;20418;-78
2021/05/29 07:35:22;;;;;;;17.47;10.63;;;14.00;1.00;;;;;;5029909;28;20894;-78
2021/05/29 07:37:49;;;;;;;15.73;12.63;;;14.30;1.00;;;;;;5023341;28;20466;-78
2021/05/29 07:40:16;;;;;;;12.07;10.73;;;14.50;1.00;;;;;;5026675;28;20530;-77
2021/05/29 07:42:42;;;;;;;12.97;11.57;;;14.50;1.00;;;;;;5028897;28;20506;-78
2021/05/29 07:45:10;;;;;;;12.13;10.70;;;14.70;1.00;;;;;;5025129;28;20441;-79
2021/05/29 07:47:36;;;;;;;18.03;11.47;;;14.60;1.00;;;;;;5026527;28;20472;-82
2021/05/29 07:50:04;;;;;;;12.80;10.77;;;14.60;1.00;;;;;;5016549;28;20649;-81
2021/05/29 07:52:31;;;;;;;15.53;10.93;;;14.60;1.00;;;;;;5010695;28;20577;-82
2021/05/29 07:54:57;;;;;;;14.63;11.50;;;14.50;1.00;;;;;;5012721;28;20430;-82
2021/05/29 07:57:24;;;;;;;11.77;9.67;;;14.70;1.00;;;;;;5012202;28;20500;-82
2021/05/29 07:59:50;;;;;;;11.70;10.47;;;14.90;1.00;;;;;;5014895;28;20498;-83
2021/05/29 08:02:17;;;;;;;10.53;9.43;;;15.00;1.00;;;;;;5014943;28;20491;-82
2021/05/29 08:04:43;;;;;;;12.23;9.43;;;14.90;1.00;;;;;;5014065;28;20440;-83
2021/05/29 08:07:09;;;;;;;10.90;8.70;;;14.60;1.00;;;;;;5010735;28;20441;-84
2021/05/29 08:09:35;;;;;;;11.50;9.80;;;14.70;1.00;;;;;;5017118;28;20507;-84
2021/05/29 08:12:03;;;;;;;10.10;9.10;;;14.80;1.00;;;;;;5010313;28;20438;-83
2021/05/29 08:14:29;;;;;;;11.80;9.07;;;15.10;1.00;;;;;;5007890;28;21181;-81
2021/05/29 08:16:55;;;;;;;14.70;9.60;;;15.30;1.00;;;;;;5006545;28;20631;-85
2021/05/29 08:19:23;;;;;;;11.30;8.20;;;15.60;1.00;;;;;;5017375;28;20472;-80
2021/05/29 08:21:50;;;;;;;11.03;8.70;;;15.80;1.00;;;;;;5021538;28;20402;-85
2021/05/29 08:24:16;;;;;;;10.20;7.70;;;15.90;1.00;;;;;;5021482;28;20501;-82
2021/05/29 08:26:44;;;;;;;8.80;7.90;;;16.20;1.00;;;;;;5012873;28;20416;-83
2021/05/29 08:29:14;;;;;;;8.83;7.83;;;16.50;1.00;;;;;;5015051;28;20469;-85
2021/05/29 08:31:42;;;;;;;9.27;8.23;;;16.50;1.00;;;;;;5016014;28;20472;-82
2021/05/29 08:34:09;;;;;;;9.70;8.63;;;16.40;1.00;;;;;;5016546;28;20521;-82
2021/05/29 08:36:36;;;;;;;8.40;7.43;;;16.40;1.00;;;;;;5023270;28;20422;-84
2021/05/29 08:39:04;;;;;;;11.53;8.60;;;16.70;1.00;;;;;;5008857;28;20432;-85
2021/05/29 08:41:30;;;;;;;9.00;7.33;;;16.90;1.00;;;;;;5013970;28;20526;-82
2021/05/29 08:43:57;;;;;;;8.80;8.00;;;16.70;1.00;;;;;;5039002;28;20920;-83
2021/05/29 08:46:24;;;;;;;8.90;7.50;;;16.50;1.00;;;;;;5029893;28;20426;-80
2021/05/29 08:48:52;;;;;;;16.53;7.83;;;16.60;1.00;;;;;;5010719;28;20463;-81
2021/05/29 08:51:19;;;;;;;10.33;7.63;;;16.90;1.00;;;;;;5026095;28;20473;-81
2021/05/29 08:53:47;;;;;;;8.70;7.60;;;16.90;1.00;;;;;;5021678;28;20486;-85
2021/05/29 08:56:14;;;;;;;7.90;7.10;;;16.90;1.00;;;;;;5021198;28;20427;-81
2021/05/29 08:58:41;;;;;;;9.20;7.00;;;17.00;1.00;;;;;;5018912;28;20520;-80
2021/05/29 09:01:07;;;;;;;8.90;6.30;;;17.20;1.00;;;;;;5027224;28;20510;-84
2021/05/29 09:03:47;;;;;;;6.97;6.23;;;17.30;1.00;;;;;;5029075;28;20416;-83
2021/05/29 09:06:16;;;;;;;10.27;7.67;;;17.30;1.00;;;;;;5019278;28;20455;-83
2021/05/29 09:08:49;;;;;;;7.30;6.60;;;17.30;1.00;;;;;;5009261;28;20536;-86
2021/05/29 09:11:35;;;;;;;6.60;6.00;;;17.30;1.00;;;;;;5010975;28;20448;-81
2021/05/29 09:14:22;;;;;;;9.90;6.77;;;17.30;1.00;;;;;;5010090;28;20412;-82
2021/05/29 09:17:01;;;;;;;10.53;6.53;;;17.40;1.00;;;;;;5017565;28;20452;-85
2021/05/29 09:19:28;;;;;;;9.60;6.80;;;17.50;1.00;;;;;;5015009;28;21266;-82
2021/05/29 09:21:54;;;;;;;8.20;6.60;;;17.60;1.00;;;;;;5020502;28;20461;-84
2021/05/29 09:24:21;;;;;;;10.27;7.07;;;17.80;1.00;;;;;;5016861;28;20475;-84
2021/05/29 09:26:49;;;;;;;12.47;8.03;;;18.00;1.00;;;;;;5023158;28;20997;-84
2021/05/29 09:29:18;;;;;;;9.60;7.10;;;18.20;1.00;;;;;;5017743;28;20459;-85
2021/05/29 09:31:53;;;;;;;7.20;6.23;;;18.60;1.00;;;;;;5013111;28;20452;-82
2021/05/29 09:34:38;;;;;;;9.83;6.50;;;19.40;1.00;;;;;;5017244;28;20542;-84
2021/05/29 09:37:07;;;;;;;6.93;6.23;;;19.90;1.00;;;;;;5008959;28;20439;-84
2021/05/29 09:39:36;;;;;;;6.73;6.07;;;19.90;1.00;;;;;;5010974;28;20477;-85
2021/05/29 09:42:03;;;;;;;6.83;6.00;;;19.60;1.00;;;;;;5020377;28;20476;-86
2021/05/29 09:44:30;;;;;;;10.23;8.73;;;19.10;1.00;;;;;;5015825;28;20457;-83
2021/05/29 09:46:59;;;;;;;6.70;5.90;;;18.80;1.00;;;;;;5009176;28;20432;-80
2021/05/29 09:49:27;;;;;;;6.23;5.63;;;18.70;1.00;;;;;;5005869;28;20466;-81
2021/05/29 09:51:54;;;;;;;7.80;6.37;;;18.70;1.00;;;;;;5009002;28;20452;-80
2021/05/29 09:54:24;;;;;;;7.50;6.00;;;20.20;1.00;;;;;;5017839;28;20547;-81
2021/05/29 09:57:02;;;;;;;6.93;5.37;;;21.70;1.00;;;;;;5022073;28;20462;-78
2021/05/29 09:59:29;;;;;;;6.70;6.10;;;21.60;1.00;;;;;;5022516;28;20462;-81
2021/05/29 10:01:57;;;;;;;7.50;6.23;;;21.20;1.00;;;;;;5018605;28;20522;-86
2021/05/29 10:04:39;;;;;;;6.83;5.87;;;22.30;1.00;;;;;;4998671;28;20468;-83
2021/05/29 10:07:09;;;;;;;7.00;6.40;;;22.90;1.00;;;;;;5015010;28;21243;-83
2021/05/29 10:09:35;;;;;;;7.60;5.63;;;23.70;1.00;;;;;;5012371;28;20511;-80
2021/05/29 10:12:03;;;;;;;7.83;7.17;;;24.60;1.00;;;;;;5020828;28;20454;-82
2021/05/29 10:14:30;;;;;;;7.20;6.50;;;24.60;1.00;;;;;;5032215;28;21310;-83
2021/05/29 10:16:58;;;;;;;9.73;6.60;;;24.90;1.00;;;;;;5023022;28;20440;-79
2021/05/29 10:19:24;;;;;;;8.70;6.30;;;25.30;1.00;;;;;;5013463;28;20474;-80
2021/05/29 10:21:52;;;;;;;6.47;5.87;;;25.50;1.00;;;;;;5027365;28;20409;-80
2021/05/29 10:24:21;;;;;;;6.70;6.10;;;25.80;1.00;;;;;;5019865;28;20464;-80
2021/05/29 10:26:48;;;;;;;6.83;6.23;;;25.00;1.00;;;;;;5034566;28;20437;-80
2021/05/29 10:29:14;;;;;;;6.57;6.00;;;24.30;1.00;;;;;;5025846;28;20532;-80
2021/05/29 10:31:42;;;;;;;7.20;6.10;;;23.80;1.00;;;;;;5023343;28;20592;-81
2021/05/29 10:34:09;;;;;;;6.10;5.43;;;23.40;1.00;;;;;;5017119;28;21707;-79
2021/05/29 10:36:39;;;;;;;6.30;5.70;;;24.40;1.00;;;;;;5020650;28;20448;-81
2021/05/29 10:39:07;;;;;;;7.20;6.60;;;25.40;1.00;;;;;;5019724;28;20448;-80
2021/05/29 10:41:52;;;;;;;7.47;6.77;;;25.60;1.00;;;;;;5019793;28;20432;-79
2021/05/29 10:44:32;;;;;;;6.77;6.10;;;24.50;1.00;;;;;;5024644;28;20470;-79
2021/05/29 10:47:20;;;;;;;6.87;6.17;;;23.10;1.00;;;;;;5022644;28;20449;-82
2021/05/29 10:49:58;;;;;;;6.47;5.60;;;23.80;1.00;;;;;;5014026;28;20503;-81
2021/05/29 10:52:50;;;;;;;7.13;6.10;;;25.00;1.00;;;;;;5001142;28;20458;-79
2021/05/29 10:55:24;;;;;;;6.23;5.63;;;25.70;1.00;;;;;;5005515;28;20456;-79
2021/05/29 10:57:52;;;;;;;7.17;6.50;;;27.10;1.00;;;;;;5020260;28;20534;-82
2021/05/29 11:00:59;;;;;;;6.23;5.63;;;27.00;1.00;;;;;;5020920;28;20471;-81
2021/05/29 11:03:27;;;;;;;5.93;5.43;;;26.80;1.00;;;;;;5022782;28;20413;-82
2021/05/29 11:05:55;;;;;;;5.63;5.10;;;27.10;1.00;;;;;;4999332;28;20467;-81
2021/05/29 11:08:50;;;;;;;6.00;5.60;;;27.60;1.00;;;;;;5024582;28;20484;-82
2021/05/29 11:11:51;;;;;;;6.37;5.77;;;27.90;1.00;;;;;;5025448;28;20454;-81
2021/05/29 11:14:20;;;;;;;7.10;6.40;;;28.20;1.00;;;;;;5021668;28;20507;-80
2021/05/29 11:17:12;;;;;;;6.77;6.17;;;27.90;1.00;;;;;;5028688;28;20452;-82
2021/05/29 11:19:41;;;;;;;6.73;6.23;;;26.60;1.00;;;;;;5024974;28;20452;-81
2021/05/29 11:22:09;;;;;;;7.60;7.00;;;25.90;1.00;;;;;;5026334;28;20471;-82
2021/05/29 11:24:39;;;;;;;7.67;6.97;;;26.60;1.00;;;;;;5030084;28;21454;-81
2021/05/29 11:27:07;;;;;;;6.90;6.20;;;26.60;1.00;;;;;;5039545;28;20446;-83
2021/05/29 11:29:51;;;;;;;6.80;6.10;;;27.60;1.00;;;;;;5040095;28;20447;-81
2021/05/29 11:32:42;;;;;;;6.90;6.10;;;27.70;1.00;;;;;;5039844;28;20441;-81
2021/05/29 11:35:08;;;;;;;7.77;6.97;;;26.60;1.00;;;;;;5028941;28;20410;-81
2021/05/29 11:37:34;;;;;;;7.10;6.50;;;26.30;1.00;;;;;;5025012;28;20448;-82
2021/05/29 11:40:00;;;;;;;6.73;6.17;;;25.50;1.00;;;;;;5023559;28;20488;-82
2021/05/29 11:42:27;;;;;;;6.93;6.33;;;26.10;1.00;;;;;;5026838;28;20463;-82
2021/05/29 11:45:14;;;;;;;6.63;5.97;;;26.90;1.00;;;;;;5030585;28;20440;-80
2021/05/29 11:47:41;;;;;;;11.50;7.17;;;27.70;1.00;;;;;;5026595;28;20467;-81
2021/05/29 11:50:15;;;;;;;7.70;6.47;;;28.60;1.00;;;;;;5025256;28;20461;-80
2021/05/29 11:52:44;;;;;;;7.23;5.70;;;29.70;1.00;;;;;;5022438;28;20434;-80
2021/05/29 11:55:11;;;;;;;6.60;6.00;;;28.90;1.00;;;;;;5029201;28;20453;-80
2021/05/29 11:57:56;;;;;;;6.47;5.83;;;27.90;1.00;;;;;;5027461;28;21359;-79
2021/05/29 12:00:23;;;;;;;6.53;5.93;;;28.50;1.00;;;;;;5023975;28;20456;-82
2021/05/29 12:02:50;;;;;;;7.23;6.70;;;28.90;1.00;;;;;;5028138;28;20451;-82
2021/05/29 12:05:17;;;;;;;7.70;7.00;;;29.30;1.00;;;;;;5029289;28;21317;-81
2021/05/29 12:07:59;;;;;;;7.30;6.60;;;28.90;1.00;;;;;;5042563;28;20425;-82
2021/05/29 12:10:25;;;;;;;7.90;7.20;;;28.50;1.00;;;;;;5036753;28;21593;-81
2021/05/29 12:12:52;;;;;;;8.13;7.43;;;27.60;1.00;;;;;;5030987;28;20463;-82
2021/05/29 12:15:18;;;;;;;11.33;10.20;;;27.20;1.00;;;;;;5025686;28;20531;-81
2021/05/29 12:17:45;;;;;;;8.50;7.70;;;26.60;1.00;;;;;;5032676;28;20407;-80
2021/05/29 12:20:12;;;;;;;7.97;7.27;;;26.00;1.00;;;;;;5029680;28;20501;-80
2021/05/29 12:22:38;;;;;;;8.00;7.20;;;26.50;1.00;;;;;;5028402;28;20460;-83
2021/05/29 12:25:08;;;;;;;8.00;7.20;;;27.30;1.00;;;;;;5029246;28;20450;-81
2021/05/29 12:27:41;;;;;;;7.30;6.70;;;27.90;1.00;;;;;;5033375;28;20442;-81
2021/05/29 12:30:10;;;;;;;8.30;7.10;;;28.50;1.00;;;;;;5031775;28;20419;-81
2021/05/29 12:32:39;;;;;;;8.80;7.00;;;28.70;1.00;;;;;;5027436;28;20465;-81
2021/05/29 12:35:08;;;;;;;9.17;8.37;;;29.00;1.00;;;;;;5017110;28;20459;-81
2021/05/29 12:37:40;;;;;;;9.00;7.40;;;29.10;1.00;;;;;;5024470;28;20423;-82
2021/05/29 12:40:11;;;;;;;9.13;7.07;;;28.50;1.00;;;;;;5026496;28;20530;-81
2021/05/29 12:42:44;;;;;;;7.80;7.10;;;27.10;1.00;;;;;;5026774;28;20535;-79
2021/05/29 12:45:16;;;;;;;8.87;7.37;;;26.50;1.00;;;;;;5023931;28;20431;-79
2021/05/29 12:47:52;;;;;;;6.87;6.37;;;25.10;1.00;;;;;;5029921;28;20422;-80
2021/05/29 12:50:20;;;;;;;7.53;6.80;;;24.90;1.00;;;;;;5025573;28;20494;-81
2021/05/29 12:52:46;;;;;;;8.10;7.33;;;24.90;1.00;;;;;;5019277;28;20519;-81
2021/05/29 12:55:21;;;;;;;7.90;7.20;;;24.60;1.00;;;;;;5019979;28;20416;-83
2021/05/29 12:57:48;;;;;;;6.90;6.30;;;24.70;1.00;;;;;;5022242;28;20438;-82
2021/05/29 13:00:32;;;;;;;7.77;6.97;;;24.60;1.00;;;;;;5028479;28;20463;-83
2021/05/29 13:09:09;;;;;;;8.03;6.90;;;23.70;1.00;;;;;;5021017;28;20433;-82